createdAt,value
2023-03-15T00:01:39.627Z,99650.96
2023-03-15T00:04:09.010Z,99655.05
2023-03-15T00:06:38.379Z,99653.27
2023-03-15T00:09:07.977Z,99656.08
2023-03-15T00:11:37.292Z,99660.13
2023-03-15T00:14:07.295Z,99675.56
2023-03-15T00:16:37.663Z,99690.89
2023-03-15T00:19:07.324Z,99699.85
2023-03-15T00:21:37.036Z,99705.11
2023-03-15T00:24:08.047Z,99716.26
2023-03-15T00:26:37.967Z,99727.69
2023-03-15T00:29:07.485Z,99732.14
2023-03-15T00:31:36.851Z,99736.65
2023-03-15T00:34:06.244Z,99741.53
2023-03-15T00:36:35.581Z,99748.34
2023-03-15T00:39:05.258Z,99758.08
2023-03-15T00:41:35.623Z,99759.52
2023-03-15T00:44:05.616Z,99764.89
2023-03-15T00:46:35.249Z,99779.31
2023-03-15T00:49:04.700Z,99784.58
2023-03-15T00:51:34.480Z,99777.41
2023-03-15T00:54:04.083Z,99768.66
2023-03-15T00:56:33.365Z,99764.55
2023-03-15T00:59:03.855Z,99780.73
2023-03-15T01:01:33.301Z,99796.33
2023-03-15T01:04:02.624Z,99802.67
2023-03-15T01:06:32.010Z,99799.52
2023-03-15T01:09:02.154Z,99797.90
2023-03-15T01:11:31.795Z,99796.19
2023-03-15T01:14:03.022Z,99800.61
2023-03-15T01:16:33.693Z,99819.38
2023-03-15T01:19:03.086Z,99834.70
2023-03-15T01:21:32.677Z,99839.77
2023-03-15T01:24:02.093Z,99853.24
2023-03-15T01:26:31.814Z,99861.98
2023-03-15T01:29:01.105Z,99870.35
2023-03-15T01:31:31.243Z,99878.96
2023-03-15T01:34:01.198Z,99886.41
2023-03-15T01:36:33.668Z,99881.85
2023-03-15T01:39:03.022Z,99892.02
2023-03-15T01:41:44.324Z,99896.92
2023-03-15T01:44:15.411Z,99903.91
2023-03-15T01:46:45.620Z,99909.29
2023-03-15T01:49:25.544Z,99908.55
2023-03-15T01:51:59.649Z,99907.61
2023-03-15T01:54:41.695Z,99910.83
2023-03-15T01:57:16.490Z,99913.02
2023-03-15T01:59:50.567Z,99914.59
2023-03-15T02:02:22.131Z,99917.36
2023-03-15T02:04:57.819Z,99925.48
2023-03-15T02:07:30.314Z,99928.35
2023-03-15T02:10:03.692Z,99932.52
2023-03-15T02:12:38.421Z,99933.95
2023-03-15T02:15:10.971Z,99937.11
2023-03-15T02:17:42.890Z,99939.70
2023-03-15T02:20:27.914Z,99947.39
2023-03-15T02:23:00.450Z,99956.37
2023-03-15T02:25:40.960Z,99959.08
2023-03-15T02:28:13.155Z,99965.05
2023-03-15T02:30:44.721Z,99971.27
2023-03-15T02:33:19.304Z,99979.09
2023-03-15T02:35:48.699Z,99985.91
2023-03-15T02:38:18.746Z,99989.55
2023-03-15T02:40:48.841Z,99993.94
2023-03-15T02:43:20.530Z,99999.92
2023-03-15T02:45:51.084Z,100003.75
2023-03-15T02:48:21.328Z,100012.36
2023-03-15T02:50:51.325Z,100016.22
2023-03-15T02:53:20.662Z,100026.80
2023-03-15T02:55:51.308Z,100030.58
2023-03-15T02:58:20.733Z,100030.65
2023-03-15T03:00:52.436Z,100031.89
2023-03-15T03:03:21.670Z,100039.11
2023-03-15T03:05:51.094Z,100049.66
2023-03-15T03:08:20.467Z,100054.05
2023-03-15T03:10:50.010Z,100058.59
2023-03-15T03:13:19.537Z,100064.48
2023-03-15T03:15:57.950Z,100071.23
2023-03-15T03:18:29.926Z,100081.30
2023-03-15T03:20:59.926Z,100085.20
2023-03-15T03:23:30.142Z,100092.14
2023-03-15T03:26:00.786Z,100098.68
2023-03-15T03:28:32.609Z,100106.19
2023-03-15T03:31:02.730Z,100112.25
2023-03-15T03:33:33.030Z,100120.36
2023-03-15T03:36:03.882Z,100130.16
2023-03-15T03:38:33.296Z,100138.38
2023-03-15T03:41:03.519Z,100143.10
2023-03-15T03:43:33.506Z,100144.52
2023-03-15T03:46:03.206Z,100151.84
2023-03-15T03:48:34.334Z,100151.00
2023-03-15T03:51:03.917Z,100158.01
2023-03-15T03:53:33.353Z,100165.02
2023-03-15T03:56:06.044Z,100169.31
2023-03-15T03:58:36.770Z,100168.66
2023-03-15T04:01:14.161Z,100169.70
2023-03-15T04:03:43.590Z,100177.45
2023-03-15T04:06:18.474Z,100183.61
2023-03-15T04:08:49.345Z,100191.52
2023-03-15T04:11:39.111Z,100194.08
2023-03-15T04:14:10.111Z,100185.55
2023-03-15T04:16:40.001Z,100180.94
2023-03-15T04:19:13.086Z,100185.34
2023-03-15T04:21:46.621Z,100193.52
2023-03-15T04:24:39.461Z,100197.86
2023-03-15T04:27:14.051Z,100202.77
2023-03-15T04:29:58.136Z,100208.05
2023-03-15T04:32:46.123Z,100212.88
2023-03-15T04:35:33.008Z,100209.77
2023-03-15T04:38:26.074Z,100211.45
2023-03-15T04:41:16.324Z,100213.11
2023-03-15T04:44:05.264Z,100221.39
2023-03-15T04:47:07.643Z,100229.17
2023-03-15T04:50:00.336Z,100226.92
2023-03-15T04:52:52.500Z,100235.33
2023-03-15T04:55:37.606Z,100237.55
2023-03-15T04:58:25.689Z,100243.15
2023-03-15T05:01:18.620Z,100245.81
2023-03-15T05:04:17.448Z,100251.42
2023-03-15T05:06:56.499Z,100254.28
2023-03-15T05:09:49.125Z,100262.75
2023-03-15T05:12:37.031Z,100265.95
2023-03-15T05:15:18.833Z,100271.00
2023-03-15T05:18:17.580Z,100275.06
2023-03-15T05:21:16.316Z,100281.16
2023-03-15T05:24:09.095Z,100287.17
2023-03-15T05:26:58.704Z,100293.39
2023-03-15T05:29:43.388Z,100299.16
2023-03-15T05:32:34.024Z,100311.90
2023-03-15T05:35:26.146Z,100315.39
2023-03-15T05:38:31.365Z,100323.85
2023-03-15T05:41:01.381Z,100332.89
2023-03-15T05:43:46.195Z,100334.13
2023-03-15T05:46:38.426Z,100341.44
2023-03-15T05:49:13.961Z,100348.55
2023-03-15T05:52:06.837Z,100350.88
2023-03-15T05:54:40.264Z,100353.67
2023-03-15T05:57:48.050Z,100349.96
2023-03-15T06:00:43.807Z,100360.89
2023-03-15T06:03:19.691Z,100364.13
2023-03-15T06:05:54.300Z,100366.70
2023-03-15T06:08:31.317Z,100367.39
2023-03-15T06:11:00.751Z,100374.16
2023-03-15T06:13:30.165Z,100380.04
2023-03-15T06:16:00.462Z,100386.80
2023-03-15T06:18:30.533Z,100392.94
2023-03-15T06:21:01.431Z,100394.19
2023-03-15T06:23:30.754Z,100402.49
2023-03-15T06:26:00.295Z,100406.76
2023-03-15T06:28:31.258Z,100411.98
2023-03-15T06:31:08.576Z,100415.46
2023-03-15T06:33:41.949Z,100423.48
2023-03-15T06:36:13.717Z,100424.47
2023-03-15T06:38:43.407Z,100429.48
2023-03-15T06:41:14.840Z,100429.60
2023-03-15T06:43:44.311Z,100433.23
2023-03-15T06:46:14.310Z,100435.27
2023-03-15T06:48:43.967Z,100436.41
2023-03-15T06:51:14.008Z,100438.92
2023-03-15T06:53:43.932Z,100441.01
2023-03-15T06:56:13.238Z,100446.17
2023-03-15T06:58:42.548Z,100449.59
2023-03-15T07:01:13.919Z,100455.55
2023-03-15T07:03:43.579Z,100462.27
2023-03-15T07:06:12.925Z,100462.36
2023-03-15T07:08:42.246Z,100468.73
2023-03-15T07:11:11.564Z,100477.00
2023-03-15T07:13:41.173Z,100480.16
2023-03-15T07:16:11.354Z,100487.04
2023-03-15T07:18:40.609Z,100485.39
2023-03-15T07:21:09.914Z,100488.38
2023-03-15T07:23:39.180Z,100490.55
2023-03-15T07:26:08.517Z,100494.23
2023-03-15T07:28:37.934Z,100490.98
2023-03-15T07:31:07.578Z,100493.68
2023-03-15T07:33:37.667Z,100494.20
2023-03-15T07:36:08.437Z,100496.64
2023-03-15T07:38:38.549Z,100501.35
2023-03-15T07:41:08.404Z,100493.95
2023-03-15T07:43:40.337Z,100495.14
2023-03-15T07:46:27.869Z,100500.55
2023-03-15T07:48:57.144Z,100503.09
2023-03-15T07:51:26.594Z,100508.64
2023-03-15T07:53:55.847Z,100513.47
2023-03-15T07:56:25.124Z,100517.55
2023-03-15T07:58:54.410Z,100520.45
2023-03-15T08:01:23.702Z,100530.92
2023-03-15T08:03:53.078Z,100534.88
2023-03-15T08:06:22.798Z,100532.27
2023-03-15T08:08:52.116Z,100531.11
2023-03-15T08:11:21.420Z,100534.34
2023-03-15T08:13:50.693Z,100538.01
2023-03-15T08:16:19.974Z,100538.98
2023-03-15T08:18:49.226Z,100539.75
2023-03-15T08:21:18.522Z,100543.95
2023-03-15T08:23:48.197Z,100547.67
2023-03-15T08:26:19.119Z,100549.27
2023-03-15T08:28:48.387Z,100552.91
2023-03-15T08:31:17.719Z,100555.35
2023-03-15T08:33:47.913Z,100556.54
2023-03-15T08:36:17.395Z,100564.27
2023-03-15T08:38:46.767Z,100569.02
2023-03-15T08:41:16.045Z,100572.67
2023-03-15T08:43:45.371Z,100575.31
2023-03-15T08:46:14.962Z,100575.65
2023-03-15T08:48:44.299Z,100578.71
2023-03-15T08:51:14.301Z,100578.66
2023-03-15T08:53:43.599Z,100587.84
2023-03-15T08:56:13.104Z,100593.80
2023-03-15T08:58:42.448Z,100598.20
2023-03-15T09:01:13.515Z,100602.45
2023-03-15T09:03:43.571Z,100605.73
2023-03-15T09:06:13.078Z,100613.62
2023-03-15T09:08:42.389Z,100621.89
2023-03-15T09:11:11.762Z,100626.04
2023-03-15T09:13:41.337Z,100633.21
2023-03-15T09:16:10.638Z,100635.73
2023-03-15T09:18:40.968Z,100643.78
2023-03-15T09:21:10.695Z,100647.33
2023-03-15T09:23:40.043Z,100653.80
2023-03-15T09:26:09.417Z,100655.89
2023-03-15T09:28:38.728Z,100659.52
2023-03-15T09:31:08.446Z,100661.98
2023-03-15T09:33:37.838Z,100669.31
2023-03-15T09:36:07.817Z,100677.42
2023-03-15T09:38:37.150Z,100681.33
2023-03-15T09:41:06.804Z,100683.69
2023-03-15T09:43:57.944Z,100684.66
2023-03-15T09:46:33.194Z,100686.09
2023-03-15T09:49:09.634Z,100688.52
2023-03-15T09:51:47.449Z,100686.94
2023-03-15T09:54:20.843Z,100691.29
2023-03-15T09:56:56.732Z,100695.95
2023-03-15T09:59:30.627Z,100703.27
2023-03-15T10:02:15.015Z,100699.36
2023-03-15T10:04:47.156Z,100701.61
2023-03-15T10:07:16.945Z,100698.46
2023-03-15T10:09:47.024Z,100705.82
2023-03-15T10:12:23.577Z,100711.32
2023-03-15T10:15:23.714Z,100713.06
2023-03-15T10:18:14.848Z,100713.52
2023-03-15T10:20:53.733Z,100716.59
2023-03-15T10:23:28.914Z,100714.91
2023-03-15T10:25:58.556Z,100710.29
2023-03-15T10:28:33.863Z,100711.90
2023-03-15T10:31:21.541Z,100715.89
2023-03-15T10:33:56.917Z,100719.89
2023-03-15T10:36:26.554Z,100720.72
2023-03-15T10:38:57.389Z,100716.52
2023-03-15T10:41:36.592Z,100712.65
2023-03-15T10:44:07.887Z,100716.58
2023-03-15T10:46:37.225Z,100720.05
2023-03-15T10:49:12.203Z,100721.00
2023-03-15T10:51:44.936Z,100721.16
2023-03-15T10:54:16.940Z,100718.98
2023-03-15T10:56:48.622Z,100724.23
2023-03-15T10:59:20.119Z,100720.20
2023-03-15T11:01:51.529Z,100722.50
2023-03-15T11:04:22.710Z,100721.09
2023-03-15T11:07:02.692Z,100720.60
2023-03-15T11:09:40.659Z,100726.94
2023-03-15T11:12:18.270Z,100733.16
2023-03-15T11:14:50.949Z,100733.34
2023-03-15T11:17:22.834Z,100737.66
2023-03-15T11:19:56.906Z,100737.98
2023-03-15T11:22:26.315Z,100736.88
2023-03-15T11:24:55.886Z,100741.07
2023-03-15T11:27:26.276Z,100736.88
2023-03-15T11:29:59.933Z,100742.31
2023-03-15T11:32:32.016Z,100737.80
2023-03-15T11:35:04.765Z,100737.29
2023-03-15T11:37:39.167Z,100740.02
2023-03-15T11:40:17.530Z,100738.94
2023-03-15T11:42:54.266Z,100739.55
2023-03-15T11:45:34.224Z,100738.63
2023-03-15T11:48:28.767Z,100735.52
2023-03-15T11:50:59.278Z,100730.41
2023-03-15T11:53:34.265Z,100730.42
2023-03-15T11:56:22.274Z,100729.34
2023-03-15T11:59:06.554Z,100728.02
2023-03-15T12:01:37.189Z,100737.55
2023-03-15T12:04:42.610Z,100732.14
2023-03-15T12:07:38.584Z,100736.72
2023-03-15T12:10:33.740Z,100740.58
2023-03-15T12:13:18.633Z,100735.59
2023-03-15T12:15:50.997Z,100735.35
2023-03-15T12:18:32.981Z,100735.64
2023-03-15T12:21:18.229Z,100733.04
2023-03-15T12:23:57.020Z,100737.28
2023-03-15T12:26:41.109Z,100737.73
2023-03-15T12:29:16.954Z,100738.83
2023-03-15T12:32:04.135Z,100738.15
2023-03-15T12:34:44.218Z,100745.75
2023-03-15T12:37:19.045Z,100739.33
2023-03-15T12:39:51.654Z,100739.71
2023-03-15T12:43:08.864Z,100735.43
2023-03-15T12:45:49.190Z,100732.07
2023-03-15T12:48:23.817Z,100734.34
2023-03-15T12:51:04.784Z,100736.13
2023-03-15T12:53:44.773Z,100739.76
2023-03-15T12:56:42.175Z,100734.48
2023-03-15T12:59:27.199Z,100738.95
2023-03-15T13:01:58.640Z,100744.09
2023-03-15T13:04:29.901Z,100744.98
2023-03-15T13:07:36.847Z,100745.79
2023-03-15T13:10:31.403Z,100744.34
2023-03-15T13:13:08.056Z,100743.70
2023-03-15T13:15:43.141Z,100743.40
2023-03-15T13:18:17.716Z,100742.76
2023-03-15T13:20:57.626Z,100748.06
2023-03-15T13:23:30.362Z,100751.93
2023-03-15T13:26:32.701Z,100754.58
2023-03-15T13:29:10.098Z,100754.14
2023-03-15T13:31:39.638Z,100754.98
2023-03-15T13:34:15.993Z,100759.44
2023-03-15T13:36:47.652Z,100765.60
2023-03-15T13:39:22.567Z,100759.27
2023-03-15T13:41:58.447Z,100767.21
2023-03-15T13:44:29.010Z,100767.89
2023-03-15T13:46:59.675Z,100770.83
2023-03-15T13:49:33.620Z,100772.52
2023-03-15T13:52:14.255Z,100772.11
2023-03-15T13:54:45.184Z,100776.30
2023-03-15T13:57:16.709Z,100776.31
2023-03-15T13:59:52.061Z,100774.82
2023-03-15T14:02:25.069Z,100773.23
2023-03-15T14:04:58.570Z,100773.68
2023-03-15T14:07:33.068Z,100772.92
2023-03-15T14:10:25.383Z,100775.11
2023-03-15T14:12:55.824Z,100772.48
2023-03-15T14:15:34.116Z,100770.29
2023-03-15T14:18:16.515Z,100773.55
2023-03-15T14:20:52.353Z,100774.11
2023-03-15T14:23:25.299Z,100780.08
2023-03-15T14:25:56.315Z,100774.78
2023-03-15T14:28:25.707Z,100777.54
2023-03-15T14:30:56.987Z,100779.52
2023-03-15T14:33:32.317Z,100781.10
2023-03-15T14:36:04.072Z,100784.14
2023-03-15T14:38:35.461Z,100789.80
2023-03-15T14:41:32.439Z,100791.98
2023-03-15T14:44:02.886Z,100792.77
2023-03-15T14:46:32.772Z,100796.22
2023-03-15T14:49:02.612Z,100799.60
2023-03-15T14:51:32.686Z,100801.45
2023-03-15T14:54:02.116Z,100804.55
2023-03-15T14:56:31.527Z,100804.47
2023-03-15T14:59:03.339Z,100808.02
2023-03-15T15:01:32.948Z,100808.16
2023-03-15T15:04:04.219Z,100811.73
2023-03-15T15:06:36.214Z,100818.05
2023-03-15T15:09:06.321Z,100827.48
2023-03-15T15:11:35.741Z,100828.88
2023-03-15T15:14:12.124Z,100832.80
2023-03-15T15:16:41.728Z,100838.67
2023-03-15T15:19:12.125Z,100834.84
2023-03-15T15:21:42.205Z,100841.45
2023-03-15T15:24:17.099Z,100839.80
2023-03-15T15:26:47.051Z,100845.65
2023-03-15T15:29:17.824Z,100847.48
2023-03-15T15:31:47.275Z,100850.67
2023-03-15T15:34:16.659Z,100858.88
2023-03-15T15:36:46.411Z,100855.87
2023-03-15T15:39:21.286Z,100856.64
2023-03-15T15:41:50.611Z,100859.25
2023-03-15T15:44:21.584Z,100862.09
2023-03-15T15:46:50.973Z,100865.63
2023-03-15T15:49:20.494Z,100865.92
2023-03-15T15:51:50.923Z,100866.41
2023-03-15T15:54:22.904Z,100865.84
2023-03-15T15:56:54.770Z,100870.33
2023-03-15T15:59:25.026Z,100873.33
2023-03-15T16:02:00.991Z,100876.55
2023-03-15T16:04:32.362Z,100882.37
2023-03-15T16:07:03.261Z,100883.17
2023-03-15T16:09:35.443Z,100884.65
2023-03-15T16:12:13.503Z,100894.25
2023-03-15T16:14:43.073Z,100892.72
2023-03-15T16:17:17.233Z,100894.60
2023-03-15T16:19:46.574Z,100898.68
2023-03-15T16:22:17.277Z,100903.05
2023-03-15T16:24:50.357Z,100901.38
2023-03-15T16:27:23.256Z,100904.63
2023-03-15T16:29:55.187Z,100906.61
2023-03-15T16:32:41.084Z,100911.67
2023-03-15T16:35:14.782Z,100917.13
2023-03-15T16:37:46.015Z,100923.19
2023-03-15T16:40:21.830Z,100920.95
2023-03-15T16:42:51.165Z,100923.80
2023-03-15T16:45:21.354Z,100929.61
2023-03-15T16:47:51.085Z,100934.84
2023-03-15T16:50:20.876Z,100934.39
2023-03-15T16:52:53.156Z,100934.34
2023-03-15T16:55:26.444Z,100940.07
2023-03-15T16:57:56.390Z,100941.65
2023-03-15T17:00:26.500Z,100948.59
2023-03-15T17:02:59.335Z,100951.90
2023-03-15T17:05:31.661Z,100953.65
2023-03-15T17:08:02.170Z,100961.05
2023-03-15T17:10:32.932Z,100963.23
2023-03-15T17:13:03.322Z,100969.81
2023-03-15T17:15:33.159Z,100967.52
2023-03-15T17:18:02.755Z,100970.67
2023-03-15T17:20:33.669Z,100978.67
2023-03-15T17:23:05.088Z,100980.20
2023-03-15T17:25:35.351Z,100987.34
2023-03-15T17:28:06.044Z,100986.83
2023-03-15T17:30:37.992Z,100996.23
2023-03-15T17:33:07.980Z,100999.13
2023-03-15T17:35:41.606Z,101001.30
2023-03-15T17:38:19.534Z,101004.36
2023-03-15T17:40:49.990Z,101011.16
2023-03-15T17:43:19.697Z,101020.55
2023-03-15T17:45:49.087Z,101024.70
2023-03-15T17:48:18.628Z,101029.21
2023-03-15T17:50:48.587Z,101032.45
2023-03-15T17:53:20.617Z,101037.04
2023-03-15T17:55:53.076Z,101045.37
2023-03-15T17:58:25.962Z,101050.33
2023-03-15T18:00:56.065Z,101053.11
2023-03-15T18:03:26.932Z,101058.15
2023-03-15T18:05:57.159Z,101060.44
2023-03-15T18:08:27.255Z,101060.11
2023-03-15T18:10:57.951Z,101060.95
2023-03-15T18:13:29.451Z,101059.98
2023-03-15T18:15:59.495Z,101059.77
2023-03-15T18:18:29.099Z,101061.33
2023-03-15T18:20:58.907Z,101062.56
2023-03-15T18:23:28.788Z,101064.88
2023-03-15T18:25:59.077Z,101065.23
2023-03-15T18:28:28.746Z,101068.25
2023-03-15T18:30:58.304Z,101071.80
2023-03-15T18:33:27.939Z,101075.11
2023-03-15T18:35:57.421Z,101075.35
2023-03-15T18:38:26.852Z,101077.84
2023-03-15T18:40:56.945Z,101077.52
2023-03-15T18:43:26.587Z,101080.29
2023-03-15T18:45:56.306Z,101081.34
2023-03-15T18:48:39.739Z,101082.84
2023-03-15T18:51:12.167Z,101085.98
2023-03-15T18:53:43.132Z,101088.67
2023-03-15T18:56:18.741Z,101093.04
2023-03-15T18:58:50.241Z,101097.69
2023-03-15T19:01:22.315Z,101103.38
2023-03-15T19:03:52.405Z,101103.90
2023-03-15T19:06:22.381Z,101105.41
2023-03-15T19:08:53.700Z,101106.64
2023-03-15T19:11:24.673Z,101109.64
2023-03-15T19:13:54.006Z,101110.08
2023-03-15T19:16:24.007Z,101115.79
2023-03-15T19:18:54.740Z,101112.73
2023-03-15T19:21:25.759Z,101117.08
2023-03-15T19:23:57.163Z,101118.44
2023-03-15T19:26:27.585Z,101122.30
2023-03-15T19:28:56.948Z,101126.88
2023-03-15T19:31:26.428Z,101128.32
2023-03-15T19:33:55.840Z,101129.73
2023-03-15T19:36:25.478Z,101134.70
2023-03-15T19:38:54.802Z,101140.23
2023-03-15T19:41:24.167Z,101144.96
2023-03-15T19:43:53.498Z,101144.83
2023-03-15T19:46:22.960Z,101148.08
2023-03-15T19:48:52.609Z,101151.90
2023-03-15T19:51:22.105Z,101150.59
2023-03-15T19:53:51.514Z,101151.77
2023-03-15T19:56:21.111Z,101157.46
2023-03-15T19:58:50.764Z,101159.91
2023-03-15T20:01:20.129Z,101164.04
2023-03-15T20:03:49.551Z,101162.85
2023-03-15T20:06:18.896Z,101162.13
2023-03-15T20:08:48.215Z,101161.05
2023-03-15T20:11:24.447Z,101161.66
2023-03-15T20:13:54.155Z,101159.14
2023-03-15T20:16:23.950Z,101160.55
2023-03-15T20:18:55.223Z,101163.98
2023-03-15T20:21:24.779Z,101162.60
2023-03-15T20:23:54.178Z,101165.41
2023-03-15T20:26:24.630Z,101169.73
2023-03-15T20:28:54.054Z,101172.58
2023-03-15T20:31:23.396Z,101173.59
2023-03-15T20:33:52.857Z,101180.04
2023-03-15T20:36:22.368Z,101188.23
2023-03-15T20:38:51.732Z,101189.44
2023-03-15T20:41:21.261Z,101193.18
2023-03-15T20:43:51.084Z,101199.13
2023-03-15T20:46:22.200Z,101200.11
2023-03-15T20:48:52.213Z,101204.65
2023-03-15T20:51:21.900Z,101206.52
2023-03-15T20:53:51.344Z,101209.51
2023-03-15T20:56:21.378Z,101207.14
2023-03-15T20:58:50.761Z,101202.90
2023-03-15T21:01:20.230Z,101204.00
2023-03-15T21:03:49.620Z,101209.86
2023-03-15T21:06:19.013Z,101209.58
2023-03-15T21:08:48.710Z,101212.15
2023-03-15T21:11:18.014Z,101213.57
2023-03-15T21:13:47.660Z,101215.65
2023-03-15T21:16:17.665Z,101218.80
2023-03-15T21:18:51.241Z,101220.17
2023-03-15T21:21:21.226Z,101218.09
2023-03-15T21:23:50.505Z,101216.38
2023-03-15T21:26:19.871Z,101221.02
2023-03-15T21:28:50.102Z,101226.79
2023-03-15T21:31:19.619Z,101230.33
2023-03-15T21:33:50.754Z,101236.96
2023-03-15T21:36:20.354Z,101238.62
2023-03-15T21:38:49.729Z,101237.77
2023-03-15T21:41:19.018Z,101241.55
2023-03-15T21:43:48.326Z,101238.72
2023-03-15T21:46:17.719Z,101243.95
2023-03-15T21:48:47.244Z,101244.81
2023-03-15T21:51:16.875Z,101243.80
2023-03-15T21:53:46.152Z,101244.65
2023-03-15T21:56:15.491Z,101247.63
2023-03-15T21:58:44.826Z,101248.41
2023-03-15T22:01:15.232Z,101252.21
2023-03-15T22:03:44.689Z,101254.73
2023-03-15T22:06:13.984Z,101258.15
2023-03-15T22:08:43.571Z,101256.23
2023-03-15T22:11:13.221Z,101252.32
2023-03-15T22:13:42.593Z,101255.31
2023-03-15T22:16:12.863Z,101252.04
2023-03-15T22:18:42.138Z,101254.42
2023-03-15T22:21:11.479Z,101260.00
2023-03-15T22:23:40.753Z,101258.20
2023-03-15T22:26:10.478Z,101260.17
2023-03-15T22:28:40.418Z,101265.43
2023-03-15T22:31:11.580Z,101268.15
2023-03-15T22:33:40.936Z,101266.71
2023-03-15T22:36:10.864Z,101267.48
2023-03-15T22:38:40.764Z,101269.08
2023-03-15T22:41:14.213Z,101270.10
2023-03-15T22:43:44.925Z,101272.83
2023-03-15T22:46:14.859Z,101276.43
2023-03-15T22:48:44.211Z,101276.52
2023-03-15T22:51:17.127Z,101276.30
2023-03-15T22:53:46.397Z,101278.63
2023-03-15T22:56:15.679Z,101282.05
2023-03-15T22:58:47.186Z,101288.37
2023-03-15T23:01:16.514Z,101290.73
2023-03-15T23:03:46.472Z,101293.58
2023-03-15T23:06:15.782Z,101293.00
2023-03-15T23:08:45.413Z,101299.77
2023-03-15T23:11:15.827Z,101303.36
2023-03-15T23:13:47.814Z,101301.09
2023-03-15T23:16:17.634Z,101307.06
2023-03-15T23:18:49.094Z,101307.05
2023-03-15T23:21:18.531Z,101312.96
2023-03-15T23:23:47.861Z,101314.13
2023-03-15T23:26:19.622Z,101316.55
2023-03-15T23:28:49.953Z,101311.95
2023-03-15T23:31:19.395Z,101310.08
2023-03-15T23:33:48.640Z,101314.48
2023-03-15T23:36:18.878Z,101314.25
2023-03-15T23:38:48.999Z,101321.73
2023-03-15T23:41:18.390Z,101329.61
2023-03-15T23:43:47.686Z,101329.88
2023-03-15T23:46:17.192Z,101329.71
2023-03-15T23:48:47.228Z,101333.15
2023-03-15T23:51:16.635Z,101331.24
2023-03-15T23:53:45.945Z,101328.40
2023-03-15T23:56:15.769Z,101330.66
2023-03-15T23:58:44.992Z,101331.98
